createdAt,value
2018-06-01T00:00:31.328Z,10.37
2018-06-01T00:14:15.873Z,11.63
2018-06-01T00:16:43.517Z,11.43
2018-06-01T00:19:11.086Z,11.67
2018-06-01T00:30:49.976Z,11.97
2018-06-01T00:33:17.699Z,12.13
2018-06-01T00:35:45.328Z,12.40
2018-06-01T00:47:13.534Z,12.87
2018-06-01T00:49:41.164Z,12.60
2018-06-01T00:52:08.863Z,12.80
2018-06-01T01:03:23.542Z,10.90
2018-06-01T01:05:51.172Z,10.53
2018-06-01T01:08:18.737Z,10.63
2018-06-01T01:10:46.299Z,11.27
2018-06-01T01:37:51.072Z,11.10
2018-06-01T01:40:18.676Z,11.77
2018-06-01T01:42:46.293Z,11.43
2018-06-01T01:45:14.001Z,12.07
2018-06-01T01:56:49.907Z,12.27
2018-06-01T01:59:17.533Z,12.77
2018-06-01T02:01:45.080Z,13.27
2018-06-01T02:13:21.150Z,16.60
2018-06-01T02:15:48.673Z,16.87
2018-06-01T02:18:16.250Z,19.77
2018-06-01T02:29:51.767Z,18.37
2018-06-01T02:32:19.342Z,18.23
2018-06-01T02:34:46.968Z,18.17
2018-06-01T02:46:16.835Z,13.50
2018-06-01T02:48:44.431Z,13.97
2018-06-01T02:51:12.102Z,14.57
2018-06-01T03:02:56.607Z,13.10
2018-06-01T03:05:24.165Z,12.60
2018-06-01T03:07:51.808Z,12.33
2018-06-01T03:10:19.396Z,12.30
2018-06-01T03:21:34.744Z,10.87
2018-06-01T03:24:02.395Z,11.80
2018-06-01T03:26:29.968Z,12.40
2018-06-01T03:40:05.049Z,14.23
2018-06-01T03:42:32.652Z,15.07
2018-06-01T03:45:00.196Z,13.47
2018-06-01T03:56:41.293Z,13.57
2018-06-01T03:59:08.897Z,13.13
2018-06-01T04:01:36.531Z,13.57
2018-06-01T04:13:08.220Z,13.50
2018-06-01T04:15:35.839Z,13.53
2018-06-01T04:18:03.424Z,13.57
2018-06-01T04:29:39.815Z,13.40
2018-06-01T04:32:07.392Z,12.80
2018-06-01T04:34:34.983Z,12.43
2018-06-01T04:37:06.292Z,11.93
2018-06-01T04:48:37.283Z,11.17
2018-06-01T04:51:04.908Z,11.77
2018-06-01T04:53:32.499Z,12.43
2018-06-01T05:05:08.400Z,11.60
2018-06-01T05:07:36.047Z,12.07
2018-06-01T05:10:03.768Z,12.50
2018-06-01T05:21:40.471Z,12.43
2018-06-01T05:24:08.133Z,12.47
2018-06-01T05:26:35.756Z,12.10
2018-06-01T05:38:11.855Z,12.47
2018-06-01T05:40:39.482Z,11.97
2018-06-01T05:43:07.147Z,12.13
2018-06-01T05:54:43.131Z,11.80
2018-06-01T05:57:10.708Z,11.83
2018-06-01T05:59:38.530Z,12.40
2018-06-01T06:02:07.344Z,12.30
2018-06-01T06:13:43.849Z,11.00
2018-06-01T06:16:11.559Z,11.00
2018-06-01T06:18:39.275Z,11.33
2018-06-01T06:30:15.138Z,9.50
2018-06-01T06:32:42.694Z,8.90
2018-06-01T06:35:10.340Z,8.53
2018-06-01T06:44:06.808Z,9.30
2018-06-01T06:46:37.495Z,8.80
2018-06-01T06:49:05.036Z,10.03
2018-06-01T06:51:32.652Z,9.47
2018-06-01T06:54:01.490Z,9.87
2018-06-01T06:56:33.501Z,9.43
2018-06-01T06:59:07.347Z,10.63
2018-06-01T07:01:38.321Z,10.33
2018-06-01T07:04:06.015Z,10.43
2018-06-01T07:06:33.641Z,10.13
2018-06-01T07:09:01.191Z,10.30
2018-06-01T07:11:29.054Z,11.10
2018-06-01T07:13:59.374Z,11.03
2018-06-01T07:16:30.175Z,9.80
2018-06-01T07:21:34.496Z,11.47
2018-06-01T07:24:02.046Z,11.73
2018-06-01T07:26:29.658Z,12.13
2018-06-01T07:29:01.253Z,12.83
2018-06-01T07:31:33.101Z,12.57
2018-06-01T07:34:06.284Z,12.93
2018-06-01T07:36:41.199Z,11.93
2018-06-01T07:39:08.774Z,12.53
2018-06-01T07:41:36.379Z,12.37
2018-06-01T07:44:03.991Z,12.73
2018-06-01T07:46:33.281Z,12.43
2018-06-01T07:49:05.447Z,12.50
2018-06-01T07:51:39.047Z,11.87
2018-06-01T07:54:32.511Z,12.73
2018-06-01T07:57:00.171Z,13.83
2018-06-01T07:59:28.084Z,15.07
2018-06-01T08:01:55.707Z,15.07
2018-06-01T09:23:59.917Z,11.60
2018-06-01T09:57:05.969Z,11.10
2018-06-01T09:59:54.633Z,11.17
2018-06-01T10:35:39.119Z,12.00
2018-06-01T11:05:31.994Z,9.57
2018-06-01T11:41:21.704Z,9.83
2018-06-01T12:14:19.377Z,7.47
2018-06-01T12:28:59.275Z,10.90
2018-06-01T12:35:54.948Z,12.13
2018-06-01T12:47:31.450Z,15.17
2018-06-01T12:49:59.015Z,16.77
2018-06-01T12:52:26.675Z,17.73
2018-06-01T13:04:03.000Z,19.43
2018-06-01T13:06:30.587Z,16.47
2018-06-01T13:08:58.207Z,20.67
2018-06-01T13:23:13.803Z,20.13
2018-06-01T13:25:41.349Z,21.50
2018-06-01T13:37:17.422Z,20.63
2018-06-01T13:39:45.180Z,21.60
2018-06-01T13:42:12.924Z,21.70
2018-06-01T13:44:42.940Z,19.03
2018-06-01T13:56:18.700Z,18.60
2018-06-01T13:58:46.456Z,19.00
2018-06-01T14:01:14.012Z,18.03
2018-06-01T14:12:49.600Z,12.83
2018-06-01T14:15:17.221Z,13.70
2018-06-01T14:17:44.974Z,12.50
2018-06-01T14:29:20.855Z,11.00
2018-06-01T14:31:48.407Z,6.67
2018-06-01T14:34:16.219Z,8.00
2018-06-01T14:45:52.199Z,5.80
2018-06-01T14:51:06.700Z,4.70
2018-06-01T15:02:55.518Z,4.57
2018-06-01T15:05:23.076Z,4.00
2018-06-01T15:07:51.306Z,3.90
2018-06-01T15:10:18.983Z,4.23
2018-06-01T15:21:55.467Z,2.90
2018-06-01T15:24:23.191Z,3.40
2018-06-01T15:26:50.738Z,3.43
2018-06-01T15:34:42.964Z,3.30
2018-06-01T15:37:11.217Z,3.10
2018-06-01T15:39:38.757Z,3.60
2018-06-01T15:42:06.302Z,3.37
2018-06-01T15:44:33.994Z,3.30
2018-06-01T15:47:05.920Z,3.07
2018-06-01T15:56:15.861Z,3.33
2018-06-01T15:58:43.421Z,3.30
2018-06-01T16:01:10.995Z,2.80
2018-06-01T16:03:43.072Z,3.10
2018-06-01T16:11:43.447Z,2.80
2018-06-01T16:14:14.835Z,3.23
2018-06-01T16:16:43.153Z,2.97
2018-06-01T16:19:10.918Z,2.93
2018-06-01T16:27:06.318Z,2.80
2018-06-01T16:29:41.216Z,2.73
2018-06-01T16:32:08.745Z,2.80
2018-06-01T16:34:36.322Z,2.80
2018-06-01T16:37:04.040Z,2.90
2018-06-01T16:43:02.623Z,2.47
2018-06-01T16:48:46.851Z,2.83
2018-06-01T16:51:17.100Z,2.60
2018-06-01T16:53:46.440Z,2.73
2018-06-01T16:59:15.700Z,2.40
2018-06-01T17:04:22.980Z,2.50
2018-06-01T17:06:53.062Z,2.83
2018-06-01T17:09:20.667Z,2.73
2018-06-01T17:21:40.427Z,2.80
2018-06-01T17:26:43.003Z,3.13
2018-06-01T17:40:56.912Z,2.97
2018-06-01T17:43:24.461Z,2.80
2018-06-01T17:45:52.117Z,2.77
2018-06-01T17:57:29.623Z,3.03
2018-06-01T17:59:57.492Z,3.10
2018-06-01T18:02:25.114Z,3.20
2018-06-01T18:14:02.268Z,3.20
2018-06-01T18:16:31.599Z,3.70
2018-06-01T18:18:59.298Z,4.03
2018-06-01T18:30:03.602Z,4.90
2018-06-01T18:32:34.830Z,5.00
2018-06-01T18:35:02.387Z,5.60
2018-06-01T18:37:30.449Z,5.70
2018-06-01T18:48:35.353Z,5.40
2018-06-01T18:51:02.873Z,6.00
2018-06-01T18:53:30.518Z,5.90
2018-06-01T18:59:09.614Z,6.23
2018-06-01T19:57:06.432Z,10.50
2018-06-01T19:59:33.989Z,9.57
2018-06-01T20:02:01.555Z,10.33
2018-06-01T20:04:29.263Z,10.47
2018-06-01T20:06:58.152Z,10.13
2018-06-01T20:09:30.603Z,9.37
2018-06-01T20:12:17.844Z,10.43
2018-06-01T20:17:31.487Z,10.00
2018-06-01T20:19:59.039Z,9.53
2018-06-01T20:22:26.834Z,9.67
2018-06-01T20:24:55.201Z,9.20
2018-06-01T20:27:37.431Z,9.73
2018-06-01T20:30:07.779Z,10.70
2018-06-01T20:32:36.369Z,10.73
2018-06-01T20:35:03.969Z,10.70
2018-06-01T20:37:31.582Z,10.80
2018-06-01T20:39:59.303Z,10.50
2018-06-01T20:42:31.480Z,11.53
2018-06-01T20:44:59.828Z,11.37
2018-06-01T20:47:30.773Z,11.17
2018-06-01T20:49:58.340Z,10.77
2018-06-01T20:52:25.863Z,9.77
2018-06-01T20:54:54.302Z,10.43
2018-06-01T20:57:22.862Z,9.90
2018-06-01T20:59:53.799Z,9.13
2018-06-01T21:02:31.453Z,9.40
2018-06-01T21:04:59.673Z,9.30
2018-06-01T21:07:27.349Z,9.63
2018-06-01T21:09:54.855Z,9.03
2018-06-01T21:12:22.579Z,8.40
2018-06-01T21:14:51.444Z,8.53
2018-06-01T21:17:22.027Z,7.77
2018-06-01T21:19:54.280Z,7.10
2018-06-01T21:22:22.959Z,7.20
2018-06-01T21:24:50.587Z,7.07
2018-06-01T21:27:18.134Z,8.13
2018-06-01T21:29:45.738Z,7.37
2018-06-01T21:32:14.140Z,8.63
2018-06-01T21:34:46.459Z,8.43
2018-06-01T21:37:19.708Z,8.90
2018-06-01T21:42:34.183Z,8.53
2018-06-01T21:45:01.728Z,8.63
2018-06-01T21:47:29.340Z,8.87
2018-06-01T21:49:59.045Z,9.30
2018-06-01T21:52:38.819Z,10.40
2018-06-01T21:55:08.926Z,9.77
2018-06-01T22:00:32.707Z,10.20
2018-06-01T22:03:00.313Z,11.37
2018-06-01T22:05:27.942Z,11.73
2018-06-01T22:07:55.551Z,11.40
2018-06-01T22:10:25.883Z,11.23
2018-06-01T22:12:55.760Z,11.80
2018-06-01T22:18:26.252Z,12.23
2018-06-01T22:20:53.920Z,12.87
2018-06-01T22:23:24.286Z,11.93
2018-06-01T22:25:53.625Z,11.67
2018-06-01T22:28:23.678Z,12.73
2018-06-01T22:30:51.432Z,13.20
2018-06-01T22:33:20.880Z,12.57
2018-06-01T22:35:48.473Z,12.47
2018-06-01T22:38:16.600Z,12.47
2018-06-01T22:40:44.233Z,12.80
2018-06-01T22:43:11.862Z,11.97
2018-06-01T22:45:40.895Z,12.13
2018-06-01T22:48:08.570Z,12.17
2018-06-01T22:50:36.155Z,12.60
2018-06-01T22:53:03.755Z,11.77
2018-06-01T22:55:31.433Z,11.27
2018-06-01T22:57:59.011Z,11.17
2018-06-01T23:00:30.719Z,10.57
2018-06-01T23:03:00.245Z,9.87
2018-06-01T23:05:27.945Z,8.70
2018-06-01T23:07:55.619Z,8.47
2018-06-01T23:10:23.207Z,8.77
2018-06-01T23:12:50.770Z,9.27
2018-06-01T23:15:18.366Z,8.70
2018-06-01T23:17:47.121Z,9.10
2018-06-01T23:20:15.531Z,8.53
2018-06-01T23:22:43.235Z,7.93
2018-06-01T23:25:10.856Z,8.27
2018-06-01T23:27:38.376Z,7.93
2018-06-01T23:30:06.011Z,7.40
2018-06-01T23:32:33.629Z,7.27
2018-06-01T23:35:01.875Z,7.90
2018-06-01T23:37:30.476Z,8.10
2018-06-01T23:39:58.105Z,7.60
2018-06-01T23:42:25.677Z,7.57
2018-06-01T23:44:53.286Z,7.83
2018-06-01T23:47:20.851Z,8.17
2018-06-01T23:49:48.464Z,8.23
2018-06-01T23:52:16.302Z,8.23
2018-06-01T23:54:44.001Z,7.40
2018-06-01T23:57:11.595Z,7.60
2018-06-01T23:59:39.131Z,7.80
